createdAt,value
2019-06-07T00:00:58.214Z,0.00
2019-06-07T00:01:58.198Z,0.00
2019-06-07T00:02:58.193Z,0.00
2019-06-07T00:03:58.198Z,0.00
2019-06-07T00:04:58.169Z,0.00
2019-06-07T00:05:58.157Z,0.00
2019-06-07T00:06:58.150Z,0.00
2019-06-07T00:08:07.676Z,0.00
2019-06-07T00:08:59.153Z,0.00
2019-06-07T00:09:58.122Z,0.00
2019-06-07T00:10:58.107Z,0.00
2019-06-07T00:11:58.095Z,0.00
2019-06-07T00:12:58.087Z,0.00
2019-06-07T00:13:58.075Z,0.00
2019-06-07T00:14:58.081Z,0.00
2019-06-07T00:15:58.061Z,0.00
2019-06-07T00:16:58.042Z,0.00
2019-06-07T00:17:58.035Z,0.00
2019-06-07T00:18:58.058Z,0.00
2019-06-07T00:19:58.009Z,0.00
2019-06-07T00:20:58.017Z,0.00
2019-06-07T00:22:18.432Z,0.00
2019-06-07T00:22:58.975Z,0.00
2019-06-07T00:23:57.975Z,0.00
2019-06-07T00:24:57.955Z,0.00
2019-06-07T00:25:57.945Z,0.00
2019-06-07T00:26:59.237Z,0.00
2019-06-07T00:27:57.927Z,0.00
2019-06-07T00:28:57.912Z,0.00
2019-06-07T00:29:57.901Z,0.00
2019-06-07T00:30:57.904Z,0.00
2019-06-07T00:31:57.880Z,0.00
2019-06-07T00:32:57.936Z,0.00
2019-06-07T00:33:57.865Z,0.00
2019-06-07T00:34:57.847Z,0.00
2019-06-07T00:35:57.841Z,0.00
2019-06-07T00:36:57.835Z,0.00
2019-06-07T00:37:57.814Z,0.00
2019-06-07T00:38:57.826Z,0.00
2019-06-07T00:40:13.369Z,0.00
2019-06-07T00:40:58.784Z,0.00
2019-06-07T00:41:57.780Z,0.00
2019-06-07T00:42:57.763Z,0.00
2019-06-07T00:43:57.752Z,0.00
2019-06-07T00:44:57.761Z,0.00
2019-06-07T00:45:57.743Z,0.00
2019-06-07T00:46:57.723Z,0.00
2019-06-07T00:47:57.709Z,0.00
2019-06-07T00:48:57.704Z,0.00
2019-06-07T00:49:57.691Z,0.00
2019-06-07T00:50:57.692Z,0.00
2019-06-07T00:51:57.673Z,0.00
2019-06-07T00:53:14.858Z,0.00
2019-06-07T00:53:58.653Z,0.00
2019-06-07T00:54:57.637Z,0.00
2019-06-07T00:55:57.621Z,0.00
2019-06-07T00:56:57.636Z,0.00
2019-06-07T00:57:57.609Z,0.00
2019-06-07T00:59:10.787Z,0.00
2019-06-07T00:59:58.583Z,0.00
2019-06-07T01:00:57.606Z,0.00
2019-06-07T01:01:57.565Z,0.00
2019-06-07T01:02:57.585Z,0.00
2019-06-07T01:03:57.542Z,0.00
2019-06-07T01:04:57.530Z,0.00
2019-06-07T01:05:57.517Z,0.00
2019-06-07T01:06:57.504Z,0.00
2019-06-07T01:07:57.517Z,0.00
2019-06-07T01:08:57.513Z,0.00
2019-06-07T01:09:57.482Z,0.00
2019-06-07T01:10:57.463Z,0.00
2019-06-07T01:11:57.450Z,0.00
2019-06-07T01:12:57.442Z,0.00
2019-06-07T01:13:57.435Z,0.00
2019-06-07T01:14:57.441Z,0.00
2019-06-07T01:15:57.432Z,0.00
2019-06-07T01:17:13.516Z,0.00
2019-06-07T01:18:33.661Z,0.00
2019-06-07T01:18:58.379Z,0.00
2019-06-07T01:19:57.367Z,0.00
2019-06-07T01:20:57.371Z,0.00
2019-06-07T01:21:57.476Z,0.00
2019-06-07T01:22:57.336Z,0.00
2019-06-07T01:24:11.319Z,0.00
2019-06-07T01:24:58.311Z,0.00
2019-06-07T01:25:57.311Z,0.00
2019-06-07T01:26:57.307Z,0.00
2019-06-07T01:27:57.287Z,0.00
2019-06-07T01:28:57.276Z,0.00
2019-06-07T01:29:57.263Z,0.00
2019-06-07T01:30:57.252Z,0.00
2019-06-07T01:31:57.242Z,0.00
2019-06-07T01:32:57.261Z,0.00
2019-06-07T01:33:57.219Z,0.00
2019-06-07T01:34:57.211Z,0.00
2019-06-07T01:35:57.195Z,0.00
2019-06-07T01:36:57.212Z,0.00
2019-06-07T01:37:57.180Z,0.00
2019-06-07T01:38:57.180Z,0.00
2019-06-07T01:39:57.154Z,0.00
2019-06-07T01:40:57.144Z,0.00
2019-06-07T01:41:57.135Z,0.00
2019-06-07T01:42:57.119Z,0.00
2019-06-07T01:43:57.108Z,0.00
2019-06-07T01:44:57.119Z,0.00
2019-06-07T01:45:57.089Z,0.00
2019-06-07T01:46:57.077Z,0.00
2019-06-07T01:47:57.089Z,0.00
2019-06-07T01:48:57.065Z,0.00
2019-06-07T01:49:57.046Z,0.00
2019-06-07T01:50:57.052Z,0.00
2019-06-07T01:51:57.030Z,0.00
2019-06-07T01:52:57.012Z,0.00
2019-06-07T01:54:41.317Z,0.00
2019-06-07T01:54:59.123Z,0.00
2019-06-07T01:55:56.981Z,0.00
2019-06-07T01:56:56.984Z,0.00
2019-06-07T01:57:56.958Z,0.00
2019-06-07T01:58:56.946Z,0.00
2019-06-07T01:59:56.960Z,0.00
2019-06-07T02:00:56.956Z,0.00
2019-06-07T02:01:56.918Z,0.00
2019-06-07T02:02:56.946Z,0.00
2019-06-07T02:03:56.898Z,0.00
2019-06-07T02:04:56.895Z,0.00
2019-06-07T02:05:56.895Z,0.00
2019-06-07T02:06:56.861Z,0.00
2019-06-07T02:07:56.854Z,0.00
2019-06-07T02:08:56.859Z,0.00
2019-06-07T02:09:56.840Z,0.00
2019-06-07T02:10:56.820Z,0.00
2019-06-07T02:11:56.814Z,0.00
2019-06-07T02:12:56.796Z,0.00
2019-06-07T02:13:56.790Z,0.00
2019-06-07T02:14:56.794Z,0.00
2019-06-07T02:15:56.768Z,0.00
2019-06-07T02:16:56.754Z,0.00
2019-06-07T02:17:56.770Z,0.00
2019-06-07T02:19:02.005Z,0.00
2019-06-07T02:19:57.746Z,0.00
2019-06-07T02:20:56.710Z,0.00
2019-06-07T02:21:56.699Z,0.00
2019-06-07T02:22:56.690Z,0.00
2019-06-07T02:23:56.680Z,0.00
2019-06-07T02:25:34.442Z,0.00
2019-06-07T02:25:57.674Z,0.00
2019-06-07T02:26:56.648Z,0.00
2019-06-07T02:28:25.768Z,0.00
2019-06-07T02:28:57.621Z,0.00
2019-06-07T02:29:56.618Z,0.00
2019-06-07T02:30:59.917Z,4.00
2019-06-07T02:31:56.640Z,4.00
2019-06-07T02:32:56.595Z,4.00
2019-06-07T02:33:56.576Z,4.00
2019-06-07T02:34:56.563Z,0.00
2019-06-07T02:35:56.562Z,4.00
2019-06-07T02:36:56.543Z,4.00
2019-06-07T02:37:56.547Z,4.00
2019-06-07T02:38:56.517Z,4.00
2019-06-07T02:39:56.506Z,8.00
2019-06-07T02:40:56.517Z,4.00
2019-06-07T02:41:56.483Z,8.00
2019-06-07T02:42:56.472Z,8.00
2019-06-07T02:43:56.497Z,8.00
2019-06-07T02:44:56.450Z,8.00
2019-06-07T02:45:56.441Z,8.00
2019-06-07T02:46:56.433Z,12.00
2019-06-07T02:47:56.421Z,12.00
2019-06-07T02:48:56.408Z,16.00
2019-06-07T02:49:56.414Z,16.00
2019-06-07T02:50:56.418Z,20.00
2019-06-07T02:51:56.377Z,24.00
2019-06-07T02:52:56.367Z,24.00
2019-06-07T02:53:56.359Z,28.00
2019-06-07T02:54:56.341Z,32.00
2019-06-07T02:56:34.938Z,36.00
2019-06-07T02:56:58.918Z,40.00
2019-06-07T02:57:56.311Z,44.00
2019-06-07T02:58:56.298Z,52.00
2019-06-07T03:00:16.709Z,56.00
2019-06-07T03:01:08.556Z,64.00
2019-06-07T03:01:57.276Z,72.00
2019-06-07T03:02:56.259Z,80.00
2019-06-07T03:03:56.246Z,92.00
2019-06-07T03:04:56.236Z,100.00
2019-06-07T03:05:56.245Z,116.00
2019-06-07T03:06:56.454Z,128.00
2019-06-07T03:07:56.214Z,140.00
2019-06-07T03:08:56.192Z,156.00
2019-06-07T03:09:56.181Z,176.00
2019-06-07T03:10:56.169Z,188.00
2019-06-07T03:11:56.163Z,208.00
2019-06-07T03:12:56.175Z,228.00
2019-06-07T03:13:56.135Z,252.00
2019-06-07T03:14:56.170Z,272.00
2019-06-07T03:15:56.116Z,292.00
2019-06-07T03:16:56.112Z,320.00
2019-06-07T03:17:56.090Z,348.00
2019-06-07T03:18:56.100Z,376.00
2019-06-07T03:19:56.070Z,408.00
2019-06-07T03:21:04.945Z,436.00
2019-06-07T03:21:57.077Z,468.00
2019-06-07T03:22:56.037Z,504.00
2019-06-07T03:23:56.026Z,540.00
2019-06-07T03:24:56.044Z,576.00
2019-06-07T03:25:56.028Z,616.00
2019-06-07T03:27:32.644Z,652.00
2019-06-07T03:27:56.992Z,692.00
2019-06-07T03:28:55.976Z,732.00
2019-06-07T03:29:55.958Z,772.00
2019-06-07T03:31:01.998Z,820.00
2019-06-07T03:31:56.938Z,872.00
2019-06-07T03:32:55.926Z,924.00
2019-06-07T03:33:55.996Z,988.00
2019-06-07T03:34:55.907Z,1052.00
2019-06-07T03:35:55.890Z,1120.00
2019-06-07T03:36:55.913Z,1192.00
2019-06-07T03:37:55.875Z,1268.00
2019-06-07T03:38:55.860Z,1344.00
2019-06-07T03:39:55.850Z,1416.00
2019-06-07T03:40:55.835Z,1508.00
2019-06-07T03:42:06.388Z,1584.00
2019-06-07T03:42:56.836Z,1656.00
2019-06-07T03:43:55.817Z,1732.00
2019-06-07T03:44:55.796Z,1808.00
2019-06-07T03:45:55.782Z,1788.00
2019-06-07T03:46:55.784Z,1828.00
2019-06-07T03:47:55.757Z,1840.00
2019-06-07T03:48:55.768Z,1868.00
2019-06-07T03:49:55.739Z,1760.00
2019-06-07T03:51:04.250Z,1664.00
2019-06-07T03:51:56.713Z,1692.00
2019-06-07T03:52:55.713Z,1772.00
2019-06-07T03:53:55.696Z,1876.00
2019-06-07T03:54:55.701Z,1972.00
2019-06-07T03:55:55.672Z,2116.00
2019-06-07T03:56:55.659Z,2156.00
2019-06-07T03:58:56.650Z,2352.00
2019-06-07T03:59:55.628Z,2600.00
2019-06-07T04:00:55.636Z,2824.00
2019-06-07T04:01:55.619Z,2620.00
2019-06-07T04:02:55.599Z,2660.00
2019-06-07T04:03:55.586Z,2912.00
2019-06-07T04:04:55.574Z,3360.00
2019-06-07T04:05:55.565Z,3404.00
2019-06-07T04:06:55.570Z,3600.00
2019-06-07T04:07:55.543Z,3956.00
2019-06-07T04:08:55.554Z,4404.00
2019-06-07T04:09:55.523Z,4084.00
2019-06-07T04:11:00.246Z,3720.00
2019-06-07T04:11:56.513Z,3900.00
2019-06-07T04:12:55.492Z,4012.00
2019-06-07T04:13:55.536Z,4316.00
2019-06-07T04:14:55.469Z,5192.00
2019-06-07T04:15:55.459Z,5712.00
2019-06-07T04:16:55.451Z,6072.00
2019-06-07T04:18:01.912Z,6236.00
2019-06-07T04:18:56.426Z,6260.00
2019-06-07T04:19:55.432Z,6996.00
2019-06-07T04:20:55.413Z,7348.00
2019-06-07T04:21:55.393Z,7500.00
2019-06-07T04:22:55.390Z,8064.00
2019-06-07T04:23:55.405Z,8484.00
2019-06-07T04:24:55.364Z,8280.00
2019-06-07T04:25:55.407Z,9192.00
2019-06-07T04:26:55.347Z,12452.00
2019-06-07T04:27:55.332Z,11580.00
2019-06-07T04:29:31.758Z,10120.00
2019-06-07T04:30:07.171Z,10176.00
2019-06-07T04:30:56.302Z,9188.00
2019-06-07T04:31:55.290Z,8048.00
2019-06-07T04:32:55.281Z,11176.00
2019-06-07T04:33:55.270Z,11632.00
2019-06-07T04:34:55.281Z,9548.00
2019-06-07T04:35:55.262Z,9104.00
2019-06-07T04:36:59.319Z,7660.00
2019-06-07T04:37:55.220Z,8616.00
2019-06-07T04:38:55.211Z,8208.00
2019-06-07T04:39:55.206Z,6620.00
2019-06-07T04:40:55.186Z,6696.00
2019-06-07T04:41:55.192Z,5764.00
2019-06-07T04:42:55.166Z,5712.00
2019-06-07T04:43:55.179Z,5652.00
2019-06-07T04:44:55.143Z,7868.00
2019-06-07T04:45:55.135Z,8640.00
2019-06-07T04:46:55.116Z,8148.00
2019-06-07T04:47:55.157Z,10780.00
2019-06-07T04:48:55.096Z,8848.00
2019-06-07T04:49:55.083Z,8752.00
2019-06-07T04:50:55.078Z,6508.00
2019-06-07T04:51:55.058Z,5636.00
2019-06-07T04:52:55.106Z,7132.00
2019-06-07T04:53:55.055Z,13136.00
2019-06-07T04:54:55.031Z,16960.00
2019-06-07T04:55:55.018Z,17856.00
2019-06-07T04:56:55.005Z,14068.00
2019-06-07T04:57:54.999Z,15616.00
2019-06-07T04:58:54.980Z,11524.00
2019-06-07T05:00:11.865Z,11872.00
2019-06-07T05:01:02.625Z,16416.00
2019-06-07T05:01:55.950Z,16160.00
2019-06-07T05:02:54.933Z,18208.00
2019-06-07T05:03:54.924Z,20608.00
2019-06-07T05:04:54.911Z,20992.00
2019-06-07T05:05:54.918Z,20704.00
2019-06-07T05:06:54.892Z,20768.00
2019-06-07T05:07:54.878Z,21152.00
2019-06-07T05:08:54.878Z,21376.00
2019-06-07T05:09:54.858Z,20512.00
2019-06-07T05:10:54.842Z,22112.00
2019-06-07T05:11:54.848Z,22368.00
2019-06-07T05:12:54.819Z,22528.00
2019-06-07T05:13:54.806Z,22720.00
2019-06-07T05:14:54.798Z,23008.00
2019-06-07T05:15:54.809Z,22528.00
2019-06-07T05:16:54.768Z,23136.00
2019-06-07T05:17:54.782Z,22752.00
2019-06-07T05:18:54.747Z,23008.00
2019-06-07T05:19:54.741Z,20768.00
2019-06-07T05:20:54.721Z,19648.00
2019-06-07T05:22:04.208Z,18464.00
2019-06-07T05:22:55.724Z,18368.00
2019-06-07T05:24:06.400Z,20096.00
2019-06-07T05:24:55.676Z,20352.00
2019-06-07T05:25:54.663Z,22720.00
2019-06-07T05:26:54.652Z,24192.00
2019-06-07T05:27:54.646Z,24736.00
2019-06-07T05:28:54.656Z,24896.00
2019-06-07T05:30:09.557Z,25248.00
2019-06-07T05:31:04.580Z,25504.00
2019-06-07T05:31:55.591Z,26112.00
2019-06-07T05:32:54.586Z,26976.00
2019-06-07T05:33:54.576Z,28576.00
2019-06-07T05:34:54.575Z,31744.00
2019-06-07T05:35:54.554Z,34048.00
2019-06-07T05:37:11.051Z,34720.00
2019-06-07T05:37:55.523Z,37184.00
2019-06-07T05:38:54.615Z,40864.00
2019-06-07T05:39:54.500Z,40544.00
2019-06-07T05:40:54.503Z,40928.00
2019-06-07T05:41:54.477Z,38720.00
2019-06-07T05:42:54.475Z,39456.00
2019-06-07T05:44:11.697Z,40704.00
2019-06-07T05:44:55.447Z,42656.00
2019-06-07T05:45:54.466Z,44960.00
2019-06-07T05:46:54.443Z,45632.00
2019-06-07T05:47:54.918Z,46240.00
2019-06-07T05:48:54.405Z,46976.00
2019-06-07T05:49:54.410Z,49024.00
2019-06-07T05:50:57.309Z,50912.00
2019-06-07T05:51:54.371Z,52352.00
2019-06-07T05:52:54.388Z,53920.00
2019-06-07T05:53:54.344Z,52352.00
2019-06-07T05:54:54.353Z,49600.00
2019-06-07T05:55:54.325Z,46528.00
2019-06-07T05:56:54.310Z,44736.00
2019-06-07T05:57:54.305Z,46656.00
2019-06-07T05:58:54.315Z,51104.00
2019-06-07T05:59:54.298Z,55488.00
2019-06-07T06:00:54.264Z,55936.00
2019-06-07T06:02:02.724Z,58752.00
2019-06-07T06:03:04.893Z,50432.00
2019-06-07T06:03:55.337Z,62912.00
2019-06-07T06:04:54.222Z,57760.00
2019-06-07T06:05:55.610Z,58176.00
2019-06-07T06:06:54.210Z,60192.00
2019-06-07T06:07:54.198Z,33952.00
2019-06-07T06:09:12.869Z,32288.00
2019-06-07T06:09:57.917Z,48288.00
2019-06-07T06:10:54.159Z,61952.00
2019-06-07T06:12:01.680Z,48320.00
2019-06-07T06:12:55.152Z,55520.00
2019-06-07T06:14:06.529Z,47424.00
2019-06-07T06:14:55.106Z,51936.00
2019-06-07T06:16:01.176Z,32832.00
2019-06-07T06:16:55.118Z,41664.00
2019-06-07T06:17:54.236Z,36416.00
2019-06-07T06:18:54.072Z,49152.00
2019-06-07T06:19:54.089Z,55744.00
2019-06-07T06:21:15.709Z,55424.00
2019-06-07T06:21:55.066Z,61280.00
2019-06-07T06:22:54.021Z,55296.00
2019-06-07T06:23:54.148Z,58208.00
2019-06-07T06:25:29.727Z,52672.00
2019-06-07T06:25:57.346Z,55840.00
2019-06-07T06:27:00.290Z,48256.00
2019-06-07T06:28:10.070Z,58848.00
2019-06-07T06:28:56.307Z,67552.00
2019-06-07T06:29:53.947Z,61344.00
2019-06-07T06:30:53.938Z,56128.00
2019-06-07T06:32:39.470Z,59456.00
2019-06-07T06:32:58.234Z,50976.00
2019-06-07T06:33:54.033Z,48032.00
2019-06-07T06:34:55.903Z,52416.00
2019-06-07T06:35:53.879Z,54368.00
2019-06-07T06:36:53.868Z,66976.00
2019-06-07T06:37:53.908Z,51936.00
2019-06-07T06:38:53.843Z,50496.00
2019-06-07T06:39:53.873Z,61472.00
2019-06-07T06:41:12.147Z,46688.00
2019-06-07T06:42:01.087Z,62720.00
2019-06-07T06:42:54.796Z,72512.00
2019-06-07T06:43:53.830Z,64928.00
2019-06-07T06:44:54.289Z,66752.00
2019-06-07T06:45:53.835Z,62432.00
2019-06-07T06:46:58.069Z,53952.00
2019-06-07T06:47:55.462Z,54112.00
2019-06-07T06:48:55.166Z,44192.00
2019-06-07T06:49:54.522Z,45568.00
2019-06-07T06:50:53.714Z,56480.00
2019-06-07T06:51:54.028Z,53760.00
2019-06-07T06:52:54.866Z,64160.00
2019-06-07T06:53:53.676Z,75360.00
2019-06-07T06:55:00.115Z,70400.00
2019-06-07T06:55:54.657Z,53376.00
2019-06-07T06:56:53.643Z,46048.00
2019-06-07T06:57:53.665Z,63008.00
2019-06-07T06:59:34.689Z,76864.00
2019-06-07T06:59:54.642Z,76224.00
2019-06-07T07:01:05.900Z,67008.00
2019-06-07T07:01:54.583Z,63744.00
2019-06-07T07:03:40.684Z,72544.00
2019-06-07T07:04:11.064Z,62624.00
2019-06-07T07:04:54.549Z,56704.00
2019-06-07T07:05:54.918Z,70688.00
2019-06-07T07:06:53.909Z,51264.00
2019-06-07T07:07:53.519Z,56768.00
2019-06-07T07:08:53.631Z,48480.00
2019-06-07T07:09:58.968Z,76128.00
2019-06-07T07:10:55.221Z,77376.00
2019-06-07T07:12:10.305Z,90112.00
2019-06-07T07:12:54.514Z,90048.00
2019-06-07T07:13:56.470Z,82464.00
2019-06-07T07:14:56.096Z,78112.00
2019-06-07T07:15:58.077Z,84480.00
2019-06-07T07:16:56.652Z,83488.00
2019-06-07T07:18:07.965Z,76896.00
2019-06-07T07:18:54.873Z,53440.00
2019-06-07T07:19:55.671Z,53376.00
2019-06-07T07:20:56.775Z,61152.00
2019-06-07T07:21:55.309Z,58336.00
2019-06-07T07:22:56.865Z,50880.00
2019-06-07T07:24:19.472Z,51520.00
2019-06-07T07:24:54.993Z,81600.00
2019-06-07T07:25:59.067Z,87808.00
2019-06-07T07:26:58.284Z,74528.00
2019-06-07T07:27:55.255Z,79776.00
2019-06-07T07:28:57.134Z,70304.00
2019-06-07T07:30:29.379Z,69376.00
2019-06-07T07:30:57.145Z,74912.00
2019-06-07T07:31:56.202Z,89472.00
2019-06-07T07:32:57.206Z,86144.00
2019-06-07T07:35:00.056Z,87808.00
2019-06-07T07:36:17.545Z,93344.00
2019-06-07T07:36:59.634Z,74784.00
2019-06-07T07:37:59.646Z,74176.00
2019-06-07T07:39:00.730Z,65952.00
2019-06-07T07:40:01.408Z,70176.00
2019-06-07T07:41:10.061Z,67648.00
2019-06-07T07:42:16.717Z,72448.00
2019-06-07T07:42:56.549Z,75008.00
2019-06-07T07:44:04.690Z,67104.00
2019-06-07T07:44:56.498Z,88928.00
2019-06-07T07:45:59.141Z,91808.00
2019-06-07T07:46:55.931Z,94304.00
2019-06-07T07:48:11.079Z,93120.00
2019-06-07T07:48:56.019Z,91200.00
2019-06-07T07:49:58.504Z,94176.00
2019-06-07T07:51:00.046Z,92704.00
2019-06-07T07:51:58.331Z,94784.00
2019-06-07T07:52:56.863Z,96928.00
2019-06-07T07:54:08.698Z,93952.00
2019-06-07T07:54:56.639Z,93984.00
2019-06-07T07:55:58.514Z,94048.00
2019-06-07T07:56:56.153Z,91456.00
2019-06-07T07:58:00.913Z,90816.00
2019-06-07T07:59:01.017Z,89984.00
2019-06-07T08:00:06.008Z,94496.00
2019-06-07T08:01:08.489Z,93536.00
2019-06-07T08:01:55.966Z,97184.00
2019-06-07T08:02:56.138Z,98240.00
2019-06-07T08:03:54.874Z,94784.00
2019-06-07T08:05:20.178Z,95520.00
2019-06-07T08:05:58.373Z,96416.00
2019-06-07T08:06:55.995Z,96192.00
2019-06-07T08:07:56.527Z,95264.00
2019-06-07T08:08:56.726Z,95008.00
2019-06-07T08:09:57.693Z,95488.00
2019-06-07T08:10:58.069Z,96704.00
2019-06-07T08:12:00.028Z,99200.00
2019-06-07T08:13:14.456Z,98528.00
2019-06-07T08:13:57.266Z,97056.00
2019-06-07T08:14:57.471Z,98272.00
2019-06-07T08:15:58.779Z,102144.00
2019-06-07T08:16:54.500Z,101632.00
2019-06-07T08:17:58.093Z,101376.00
2019-06-07T08:19:00.330Z,99680.00
2019-06-07T08:19:55.011Z,100928.00
2019-06-07T08:21:15.065Z,100256.00
2019-06-07T08:21:55.710Z,99328.00
2019-06-07T08:22:55.474Z,100672.00
2019-06-07T08:23:58.316Z,100032.00
2019-06-07T08:24:55.311Z,101088.00
2019-06-07T08:25:56.624Z,99328.00
2019-06-07T08:27:17.656Z,97952.00
2019-06-07T08:27:55.999Z,97920.00
2019-06-07T08:28:55.920Z,100736.00
2019-06-07T08:30:14.354Z,99872.00
2019-06-07T08:31:02.435Z,99488.00
2019-06-07T08:31:55.827Z,98624.00
2019-06-07T08:32:55.881Z,99264.00
2019-06-07T08:33:58.070Z,100544.00
2019-06-07T08:34:59.823Z,101728.00
2019-06-07T08:36:54.911Z,101056.00
2019-06-07T08:38:21.357Z,100064.00
2019-06-07T08:38:57.865Z,101952.00
2019-06-07T08:39:56.705Z,104416.00
2019-06-07T08:40:59.081Z,102048.00
2019-06-07T08:42:08.856Z,103200.00
2019-06-07T08:43:15.115Z,102592.00
2019-06-07T08:43:56.455Z,104544.00
2019-06-07T08:44:54.320Z,106912.00
2019-06-07T08:45:58.408Z,106656.00
2019-06-07T08:47:11.731Z,106208.00
2019-06-07T08:47:58.002Z,105152.00
2019-06-07T08:48:55.990Z,101888.00
2019-06-07T08:49:56.202Z,104096.00
2019-06-07T08:50:57.065Z,102816.00
2019-06-07T08:51:57.706Z,103072.00
2019-06-07T08:52:56.942Z,103104.00
2019-06-07T08:54:09.538Z,102144.00
2019-06-07T08:54:54.898Z,102944.00
2019-06-07T08:55:58.268Z,104608.00
2019-06-07T08:56:55.761Z,101600.00
2019-06-07T08:58:01.237Z,100672.00
2019-06-07T08:58:56.438Z,102080.00
2019-06-07T08:59:55.684Z,96160.00
2019-06-07T09:00:55.508Z,92928.00
2019-06-07T09:01:57.811Z,88608.00
2019-06-07T09:02:55.668Z,97472.00
2019-06-07T09:03:55.012Z,95136.00
2019-06-07T09:04:54.773Z,101184.00
2019-06-07T09:05:54.175Z,100800.00
2019-06-07T09:07:07.267Z,100320.00
2019-06-07T09:08:13.328Z,101376.00
2019-06-07T09:08:53.813Z,97728.00
2019-06-07T09:09:59.764Z,95552.00
2019-06-07T09:10:54.036Z,96608.00
2019-06-07T09:11:52.460Z,98336.00
2019-06-07T09:12:54.394Z,100768.00
2019-06-07T09:13:55.500Z,99744.00
2019-06-07T09:15:09.434Z,99104.00
2019-06-07T09:15:53.699Z,101536.00
2019-06-07T09:16:55.380Z,99264.00
2019-06-07T09:18:34.885Z,103136.00
2019-06-07T09:18:57.001Z,105920.00
2019-06-07T09:19:55.515Z,105088.00
2019-06-07T09:20:52.095Z,106304.00
2019-06-07T09:21:52.084Z,102592.00
2019-06-07T09:22:52.086Z,102400.00
2019-06-07T09:23:52.110Z,103552.00
2019-06-07T09:24:52.058Z,102368.00
2019-06-07T09:26:02.634Z,105088.00
2019-06-07T09:26:53.028Z,103808.00
2019-06-07T09:27:52.023Z,103808.00
2019-06-07T09:28:52.029Z,103520.00
2019-06-07T09:29:52.025Z,102432.00
2019-06-07T09:30:51.997Z,101568.00
2019-06-07T09:31:53.714Z,100160.00
2019-06-07T09:32:51.971Z,96736.00
2019-06-07T09:33:51.964Z,95040.00
2019-06-07T09:34:51.956Z,95776.00
2019-06-07T09:35:51.957Z,93856.00
2019-06-07T09:36:52.044Z,88864.00
2019-06-07T09:38:07.317Z,94912.00
2019-06-07T09:38:52.909Z,99872.00
2019-06-07T09:39:51.900Z,99872.00
2019-06-07T09:40:51.895Z,102112.00
2019-06-07T09:41:51.922Z,105024.00
2019-06-07T09:43:38.643Z,102240.00
2019-06-07T09:44:04.696Z,93472.00
2019-06-07T09:44:52.851Z,90464.00
2019-06-07T09:45:51.847Z,99008.00
2019-06-07T09:47:12.845Z,102144.00
2019-06-07T09:47:52.846Z,101088.00
2019-06-07T09:49:52.841Z,102944.00
2019-06-07T09:50:51.801Z,104000.00
2019-06-07T09:51:51.782Z,103872.00
2019-06-07T09:52:58.703Z,103808.00
2019-06-07T09:53:52.799Z,102560.00
2019-06-07T09:55:52.741Z,102560.00
2019-06-07T09:56:51.731Z,103648.00
2019-06-07T09:57:51.724Z,102496.00
2019-06-07T09:58:53.683Z,103392.00
2019-06-07T09:59:51.734Z,101248.00
2019-06-07T10:00:51.741Z,103104.00
2019-06-07T10:01:51.684Z,101536.00
2019-06-07T10:02:51.698Z,101792.00
2019-06-07T10:03:51.662Z,99840.00
2019-06-07T10:04:51.650Z,97376.00
2019-06-07T10:05:51.656Z,93568.00
2019-06-07T10:06:51.643Z,90656.00
2019-06-07T10:08:04.078Z,98816.00
2019-06-07T10:10:52.616Z,97984.00
2019-06-07T10:11:51.579Z,103520.00
2019-06-07T10:12:51.573Z,102464.00
2019-06-07T10:13:51.558Z,103104.00
2019-06-07T10:14:51.556Z,102784.00
2019-06-07T10:15:53.639Z,94752.00
2019-06-07T10:16:51.546Z,90528.00
2019-06-07T10:17:51.524Z,93056.00
2019-06-07T10:18:51.513Z,104416.00
2019-06-07T10:19:51.501Z,99776.00
2019-06-07T10:20:51.493Z,89632.00
2019-06-07T10:21:51.481Z,101408.00
2019-06-07T10:22:51.488Z,98848.00
2019-06-07T10:23:51.470Z,101984.00
2019-06-07T10:24:51.447Z,104640.00
2019-06-07T10:25:51.445Z,107552.00
2019-06-07T10:26:51.442Z,109248.00
2019-06-07T10:27:51.421Z,108064.00
2019-06-07T10:28:53.547Z,105792.00
2019-06-07T10:29:51.402Z,104032.00
2019-06-07T10:30:51.400Z,100960.00
2019-06-07T10:31:51.379Z,99968.00
2019-06-07T10:32:52.296Z,98496.00
2019-06-07T10:33:51.358Z,101920.00
2019-06-07T10:34:51.370Z,101920.00
2019-06-07T10:35:51.338Z,105504.00
2019-06-07T10:36:51.335Z,106112.00
2019-06-07T10:37:51.319Z,105952.00
2019-06-07T10:38:51.398Z,106912.00
2019-06-07T10:39:51.295Z,105984.00
2019-06-07T10:40:51.310Z,106464.00
2019-06-07T10:41:54.038Z,107872.00
2019-06-07T10:42:51.264Z,107360.00
2019-06-07T10:43:51.276Z,105120.00
2019-06-07T10:44:51.251Z,105824.00
2019-06-07T10:45:51.235Z,104480.00
2019-06-07T10:46:51.245Z,106496.00
2019-06-07T10:47:51.218Z,106976.00
2019-06-07T10:48:51.209Z,89344.00
2019-06-07T10:49:51.205Z,111104.00
2019-06-07T10:50:51.204Z,109312.00
2019-06-07T10:51:51.177Z,107904.00
2019-06-07T10:52:51.193Z,106432.00
2019-06-07T10:53:51.159Z,104896.00
2019-06-07T10:54:51.144Z,105984.00
2019-06-07T10:55:51.132Z,105184.00
2019-06-07T10:56:51.128Z,104096.00
2019-06-07T10:57:51.145Z,105056.00
2019-06-07T10:58:51.124Z,105024.00
2019-06-07T10:59:51.093Z,103552.00
2019-06-07T11:00:51.290Z,103648.00
2019-06-07T11:01:51.096Z,100992.00
2019-06-07T11:02:54.758Z,102688.00
2019-06-07T11:03:51.057Z,103296.00
2019-06-07T11:04:51.058Z,102592.00
2019-06-07T11:05:51.033Z,102720.00
2019-06-07T11:06:51.041Z,101920.00
2019-06-07T11:07:51.210Z,102784.00
2019-06-07T11:08:51.004Z,102880.00
2019-06-07T11:10:05.658Z,104384.00
2019-06-07T11:10:51.998Z,103904.00
2019-06-07T11:11:50.973Z,101888.00
2019-06-07T11:12:50.964Z,102176.00
2019-06-07T11:13:52.587Z,100960.00
2019-06-07T11:14:50.947Z,100256.00
2019-06-07T11:15:50.951Z,100320.00
2019-06-07T11:16:51.002Z,102624.00
2019-06-07T11:17:50.912Z,103776.00
2019-06-07T11:18:50.900Z,104832.00
2019-06-07T11:19:50.904Z,104768.00
2019-06-07T11:20:50.899Z,107104.00
2019-06-07T11:21:50.869Z,107808.00
2019-06-07T11:22:50.887Z,106080.00
2019-06-07T11:23:50.850Z,13320.00
2019-06-07T11:24:50.846Z,98624.00
2019-06-07T11:25:50.837Z,108032.00
2019-06-07T11:26:50.818Z,107872.00
2019-06-07T11:27:50.808Z,107584.00
2019-06-07T11:28:50.844Z,108864.00
2019-06-07T11:29:50.795Z,21536.00
2019-06-07T11:30:50.859Z,18336.00
2019-06-07T11:31:50.770Z,17240.00
2019-06-07T11:32:50.770Z,18560.00
2019-06-07T11:33:50.755Z,20896.00
2019-06-07T11:34:51.046Z,22752.00
2019-06-07T11:35:50.734Z,25600.00
2019-06-07T11:36:51.215Z,27296.00
2019-06-07T11:37:50.703Z,27520.00
2019-06-07T11:38:50.701Z,24384.00
2019-06-07T11:39:50.695Z,24480.00
2019-06-07T11:40:50.725Z,25856.00
2019-06-07T11:41:50.721Z,25984.00
2019-06-07T11:42:52.761Z,24864.00
2019-06-07T11:43:50.641Z,22848.00
2019-06-07T11:44:56.752Z,20000.00
2019-06-07T11:45:51.640Z,17888.00
2019-06-07T11:46:50.610Z,16352.00
2019-06-07T11:47:50.595Z,16800.00
2019-06-07T11:48:50.587Z,15636.00
2019-06-07T11:49:50.585Z,16296.00
2019-06-07T11:50:50.575Z,16448.00
2019-06-07T11:51:50.581Z,18368.00
2019-06-07T11:52:50.546Z,19520.00
2019-06-07T11:53:50.540Z,20000.00
2019-06-07T11:54:50.544Z,18208.00
2019-06-07T11:55:50.510Z,17952.00
2019-06-07T11:56:50.501Z,19936.00
2019-06-07T11:57:50.503Z,21856.00
2019-06-07T11:58:50.491Z,19168.00
2019-06-07T11:59:50.463Z,18240.00
2019-06-07T12:00:50.451Z,17600.00
2019-06-07T12:01:50.443Z,22080.00
2019-06-07T12:02:50.436Z,26016.00
2019-06-07T12:03:50.444Z,30048.00
2019-06-07T12:04:50.406Z,28864.00
2019-06-07T12:05:50.403Z,28608.00
2019-06-07T12:06:50.384Z,28032.00
2019-06-07T12:07:50.378Z,26816.00
2019-06-07T12:08:50.368Z,26912.00
2019-06-07T12:09:56.412Z,28224.00
2019-06-07T12:10:51.338Z,30688.00
2019-06-07T12:11:50.338Z,28448.00
2019-06-07T12:12:50.325Z,29216.00